Time;durP1;ratioP1;P1;durP2;ratioP2;P2;SDS_P1;SDS_P2;PMS_P1;PMS_P2;Temp;Humidity;BMP_temperature;BMP_pressure;BME280_temperature;BME280_humidity;BME280_pressure;Samples;Min_cycle;Max_cycle;Signal;HPM_P1;HPM_P2
2024/04/20 00:01:07;;;;;;;1.77;0.65;;;6.70;77.00;;;;;;5418865;26;20275;-74
2024/04/20 00:03:37;;;;;;;1.70;0.50;;;6.80;77.40;;;;;;5419637;26;20540;-74
2024/04/20 00:06:07;;;;;;;1.80;0.60;;;6.80;77.40;;;;;;5419461;26;20264;-74
2024/04/20 00:08:35;;;;;;;6.20;0.60;;;6.80;77.00;;;;;;5419462;26;20701;-74
2024/04/20 00:11:05;;;;;;;1.73;0.60;;;6.80;76.90;;;;;;5419769;26;20220;-75
2024/04/20 00:13:44;;;;;;;1.70;0.60;;;6.80;76.20;;;;;;5419032;26;20229;-76
2024/04/20 00:16:13;;;;;;;2.00;0.75;;;6.80;76.80;;;;;;5419448;26;20272;-75
2024/04/20 00:18:43;;;;;;;1.77;0.68;;;6.80;76.60;;;;;;5419384;26;20217;-75
2024/04/20 00:21:12;;;;;;;1.80;0.60;;;6.70;76.90;;;;;;5419427;26;20216;-76
2024/04/20 00:23:41;;;;;;;1.80;0.60;;;6.70;77.40;;;;;;5419407;26;20259;-75
2024/04/20 00:26:13;;;;;;;1.75;0.60;;;6.70;76.60;;;;;;5418885;26;20224;-77
2024/04/20 00:28:44;;;;;;;1.70;0.50;;;6.70;77.00;;;;;;5419435;26;20258;-75
2024/04/20 00:31:13;;;;;;;1.80;0.63;;;6.70;76.20;;;;;;5418762;26;20275;-76
2024/04/20 00:33:43;;;;;;;1.80;0.73;;;6.70;76.40;;;;;;5419491;26;20216;-75
2024/04/20 00:36:12;;;;;;;1.92;0.85;;;6.70;76.90;;;;;;5419319;26;20584;-75
2024/04/20 00:38:41;;;;;;;1.85;0.77;;;6.70;77.10;;;;;;5419098;26;20217;-76
2024/04/20 00:41:10;;;;;;;1.80;0.70;;;6.70;77.50;;;;;;5419065;26;20751;-76
2024/04/20 00:43:40;;;;;;;1.80;0.60;;;6.60;77.80;;;;;;5419340;26;20216;-75
2024/04/20 00:46:11;;;;;;;1.80;0.70;;;6.70;77.40;;;;;;5419096;26;20213;-75
2024/04/20 00:48:41;;;;;;;1.80;0.65;;;6.60;77.30;;;;;;5419443;26;20217;-74
2024/04/20 00:51:10;;;;;;;1.95;0.93;;;6.60;77.00;;;;;;5419040;26;20247;-74
2024/04/20 00:53:39;;;;;;;2.00;0.90;;;6.60;76.30;;;;;;5418614;26;20271;-75
2024/04/20 00:56:09;;;;;;;2.20;1.20;;;6.60;77.20;;;;;;5418415;26;20213;-76
2024/04/20 00:58:38;;;;;;;2.10;1.10;;;6.50;77.10;;;;;;5418993;26;20693;-75
2024/04/20 01:01:07;;;;;;;2.90;0.70;;;6.50;76.90;;;;;;5419209;26;20708;-75
2024/04/20 01:03:40;;;;;;;2.00;1.00;;;6.50;76.20;;;;;;5418845;26;20689;-74
2024/04/20 01:06:09;;;;;;;2.00;1.00;;;6.50;76.90;;;;;;5418993;26;20229;-74
2024/04/20 01:08:38;;;;;;;2.10;0.90;;;6.50;76.40;;;;;;5418545;26;20271;-76
2024/04/20 01:11:07;;;;;;;3.20;1.20;;;6.40;75.90;;;;;;5417419;26;20252;-75
2024/04/20 01:13:36;;;;;;;1.90;0.90;;;6.30;75.70;;;;;;5418491;26;20545;-75
2024/04/20 01:16:05;;;;;;;2.50;1.27;;;6.20;76.40;;;;;;5418520;26;20221;-75
2024/04/20 01:18:34;;;;;;;3.58;1.27;;;6.10;77.20;;;;;;5418045;26;20573;-75
2024/04/20 01:21:06;;;;;;;2.00;1.00;;;5.90;77.70;;;;;;5418929;26;20221;-75
2024/04/20 01:23:35;;;;;;;2.30;1.17;;;5.80;78.90;;;;;;5418589;26;20345;-75
2024/04/20 01:26:07;;;;;;;2.30;1.00;;;5.80;79.70;;;;;;5418522;26;20213;-74
2024/04/20 01:28:38;;;;;;;3.55;1.77;;;5.80;80.20;;;;;;5418549;26;20216;-76
2024/04/20 01:31:07;;;;;;;5.25;1.20;;;5.90;79.30;;;;;;5418629;26;20243;-76
2024/04/20 01:33:36;;;;;;;4.80;1.30;;;5.90;79.10;;;;;;5417955;26;20565;-75
2024/04/20 01:36:04;;;;;;;4.95;1.70;;;5.90;78.50;;;;;;5418338;26;20259;-75
2024/04/20 01:38:35;;;;;;;3.00;1.40;;;5.90;78.10;;;;;;5418229;26;20217;-75
2024/04/20 01:41:07;;;;;;;2.70;1.30;;;6.00;77.30;;;;;;5418283;26;20711;-75
2024/04/20 01:43:38;;;;;;;6.32;1.70;;;6.10;78.40;;;;;;5418095;26;20221;-75
2024/04/20 01:46:06;;;;;;;3.83;1.30;;;6.10;77.20;;;;;;5418560;26;20216;-74
2024/04/20 01:48:35;;;;;;;3.30;1.40;;;6.10;77.50;;;;;;5417760;26;20228;-75
2024/04/20 01:51:01;;;;;;;2.65;1.30;;;6.10;77.70;;;;;;5418099;26;20254;-75
2024/04/20 01:53:30;;;;;;;4.75;1.23;;;6.20;76.90;;;;;;5418516;26;20317;-76
2024/04/20 01:55:59;;;;;;;3.75;1.40;;;6.20;77.30;;;;;;5418175;26;20640;-75
2024/04/20 01:58:30;;;;;;;2.78;1.35;;;6.20;77.70;;;;;;5417847;26;20228;-75
2024/04/20 02:00:59;;;;;;;2.58;1.40;;;6.30;76.30;;;;;;5417281;26;20232;-75
2024/04/20 02:03:28;;;;;;;2.60;1.30;;;6.30;74.80;;;;;;5417744;26;20283;-75
2024/04/20 02:05:58;;;;;;;4.60;1.65;;;6.30;75.00;;;;;;5417565;26;20402;-75
2024/04/20 02:08:28;;;;;;;2.70;1.30;;;6.30;76.00;;;;;;5417878;26;20253;-75
2024/04/20 02:10:57;;;;;;;3.90;1.60;;;6.30;75.50;;;;;;5417938;26;20251;-75
2024/04/20 02:13:26;;;;;;;3.88;1.83;;;6.30;76.60;;;;;;5418154;26;20216;-75
2024/04/20 02:16:00;;;;;;;2.40;1.10;;;6.40;75.70;;;;;;5417538;26;20263;-75
2024/04/20 02:18:31;;;;;;;4.05;1.58;;;6.40;75.20;;;;;;5417625;26;20215;-74
2024/04/20 02:20:59;;;;;;;3.42;1.63;;;6.40;75.50;;;;;;5417276;26;20555;-75
2024/04/20 02:23:28;;;;;;;3.92;1.80;;;6.40;76.20;;;;;;5417528;26;20565;-76
2024/04/20 02:25:57;;;;;;;6.10;1.40;;;6.40;76.70;;;;;;5417471;26;20289;-75
2024/04/20 02:28:27;;;;;;;4.32;1.35;;;6.40;76.90;;;;;;5417448;26;20217;-75
2024/04/20 02:30:58;;;;;;;3.55;1.40;;;6.40;76.60;;;;;;5417263;26;20701;-75
2024/04/20 02:33:29;;;;;;;5.18;1.55;;;6.50;76.70;;;;;;5417527;26;20736;-75
2024/04/20 02:35:58;;;;;;;6.03;1.63;;;6.50;76.10;;;;;;5417510;26;20255;-75
2024/04/20 02:38:32;;;;;;;3.45;1.50;;;6.50;76.60;;;;;;5417376;26;20251;-75
2024/04/20 02:41:00;;;;;;;2.30;1.20;;;6.50;75.30;;;;;;5417324;26;20658;-75
2024/04/20 02:43:29;;;;;;;4.65;2.00;;;6.50;76.50;;;;;;5417387;26;20259;-76
2024/04/20 02:46:01;;;;;;;4.35;1.98;;;6.60;76.40;;;;;;5417048;26;20255;-75
2024/04/20 02:48:29;;;;;;;3.25;1.90;;;6.60;76.40;;;;;;5417289;26;20281;-75
2024/04/20 02:51:00;;;;;;;3.58;1.58;;;6.60;74.80;;;;;;5417278;26;20216;-75
2024/04/20 02:53:30;;;;;;;3.55;1.55;;;6.40;73.40;;;;;;5416945;26;20267;-76
2024/04/20 02:55:58;;;;;;;2.45;1.30;;;6.40;75.30;;;;;;5417154;26;20221;-75
2024/04/20 02:58:28;;;;;;;3.03;1.52;;;6.40;77.20;;;;;;5416620;26;20550;-76
2024/04/20 03:01:00;;;;;;;4.15;2.20;;;6.40;76.90;;;;;;5416816;26;20216;-75
2024/04/20 03:03:29;;;;;;;3.55;1.30;;;6.40;76.20;;;;;;5416943;26;20220;-76
2024/04/20 03:05:58;;;;;;;2.38;1.45;;;6.40;76.90;;;;;;5416904;26;20220;-74
2024/04/20 03:08:27;;;;;;;4.00;1.27;;;6.50;77.20;;;;;;5416785;26;20213;-76
2024/04/20 03:10:57;;;;;;;5.93;2.22;;;6.50;76.30;;;;;;5417109;26;20215;-75
2024/04/20 03:13:29;;;;;;;4.75;1.48;;;6.50;76.40;;;;;;5416740;26;20232;-75
2024/04/20 03:16:04;;;;;;;2.42;1.30;;;6.60;75.20;;;;;;5416850;26;20217;-76
2024/04/20 03:18:35;;;;;;;4.78;1.80;;;6.60;75.30;;;;;;5417081;26;20790;-76
2024/04/20 03:21:05;;;;;;;3.00;1.58;;;6.60;75.70;;;;;;5416592;26;20276;-75
2024/04/20 03:23:37;;;;;;;2.83;1.65;;;6.60;75.70;;;;;;5416598;26;20213;-74
2024/04/20 03:26:06;;;;;;;4.72;1.40;;;6.70;75.20;;;;;;5416181;26;20224;-75
2024/04/20 03:28:35;;;;;;;3.10;1.60;;;6.70;75.00;;;;;;5416975;26;20217;-75
2024/04/20 03:31:06;;;;;;;2.70;1.70;;;6.70;74.90;;;;;;5416227;26;20216;-75
2024/04/20 03:33:35;;;;;;;3.13;1.67;;;6.70;75.40;;;;;;5418304;26;20267;-75
2024/04/20 03:36:05;;;;;;;4.88;1.77;;;6.70;75.80;;;;;;5419453;26;20259;-76
2024/04/20 03:38:33;;;;;;;4.00;1.90;;;6.70;74.60;;;;;;5420391;26;20251;-75
2024/04/20 03:41:03;;;;;;;3.33;1.80;;;6.70;74.10;;;;;;5419684;26;20213;-75
2024/04/20 03:43:32;;;;;;;4.32;1.60;;;6.70;74.00;;;;;;5420403;26;20213;-74
2024/04/20 03:46:01;;;;;;;5.07;1.70;;;6.80;74.50;;;;;;5419885;26;20251;-75
2024/04/20 03:48:32;;;;;;;3.78;1.35;;;6.70;75.10;;;;;;5420673;26;20217;-75
2024/04/20 03:51:01;;;;;;;3.08;1.65;;;6.80;75.20;;;;;;5417853;26;20271;-74
2024/04/20 03:53:30;;;;;;;3.55;2.00;;;6.80;74.60;;;;;;5419986;26;20225;-75
2024/04/20 03:55:59;;;;;;;2.85;1.70;;;6.80;75.30;;;;;;5419499;26;20250;-75
2024/04/20 03:58:29;;;;;;;3.85;1.90;;;6.80;74.20;;;;;;5418542;26;20236;-75
2024/04/20 04:00:58;;;;;;;3.15;1.85;;;6.80;74.00;;;;;;5419442;26;20216;-74
2024/04/20 04:03:28;;;;;;;3.05;1.73;;;6.80;75.20;;;;;;5419783;26;20255;-75
2024/04/20 04:06:00;;;;;;;3.95;1.75;;;6.90;74.60;;;;;;5418410;26;20764;-75
2024/04/20 04:08:29;;;;;;;4.90;2.17;;;6.90;75.20;;;;;;5419334;26;20250;-76
2024/04/20 04:10:58;;;;;;;3.42;1.35;;;6.90;74.70;;;;;;5384095;26;20221;-74
2024/04/20 04:13:27;;;;;;;3.00;1.80;;;6.90;74.70;;;;;;5384114;26;20314;-75
2024/04/20 04:15:56;;;;;;;4.18;1.75;;;6.90;73.60;;;;;;5383933;26;20237;-75
2024/04/20 04:18:30;;;;;;;2.42;1.65;;;6.90;74.10;;;;;;5383916;26;20222;-75
2024/04/20 04:21:01;;;;;;;3.97;2.22;;;6.90;73.10;;;;;;5384008;26;20237;-75
2024/04/20 04:23:30;;;;;;;2.97;1.45;;;6.90;72.80;;;;;;5384270;26;20266;-75
2024/04/20 04:26:02;;;;;;;2.80;1.70;;;6.90;72.90;;;;;;5383895;26;20226;-74
2024/04/20 04:28:31;;;;;;;3.58;2.05;;;6.80;72.80;;;;;;5383991;26;20252;-75
2024/04/20 04:31:01;;;;;;;3.70;1.85;;;6.90;73.20;;;;;;5418761;26;20228;-75
2024/04/20 04:33:31;;;;;;;2.90;2.22;;;6.90;72.00;;;;;;5419380;26;20736;-75
2024/04/20 04:36:04;;;;;;;4.22;1.70;;;6.90;73.60;;;;;;5419653;26;20378;-74
2024/04/20 04:38:33;;;;;;;4.95;2.15;;;6.90;73.70;;;;;;5419121;26;20251;-74
2024/04/20 04:41:01;;;;;;;5.10;1.63;;;6.90;74.10;;;;;;5418647;26;20557;-75
2024/04/20 04:43:30;;;;;;;3.72;1.80;;;6.90;73.60;;;;;;5414241;26;20228;-75
2024/04/20 04:45:59;;;;;;;4.05;1.95;;;6.90;74.40;;;;;;5416271;26;20275;-76
2024/04/20 04:48:28;;;;;;;6.15;2.28;;;6.90;72.60;;;;;;5417314;26;20286;-75
2024/04/20 04:50:57;;;;;;;3.80;2.15;;;6.90;72.80;;;;;;5418210;26;20811;-75
2024/04/20 04:53:28;;;;;;;3.45;1.88;;;6.90;73.50;;;;;;5418629;26;20212;-76
2024/04/20 04:56:02;;;;;;;2.70;2.00;;;6.90;74.10;;;;;;5418668;26;20621;-76
2024/04/20 04:58:33;;;;;;;6.18;2.03;;;6.90;73.90;;;;;;5417411;26;20232;-74
2024/04/20 05:01:07;;;;;;;3.70;2.00;;;6.90;73.70;;;;;;5417695;26;20228;-75
2024/04/20 05:03:36;;;;;;;5.35;2.25;;;6.90;73.30;;;;;;5418445;26;20213;-74
2024/04/20 05:06:05;;;;;;;3.50;1.65;;;6.90;73.10;;;;;;5418474;26;20213;-73
2024/04/20 05:08:36;;;;;;;3.35;2.13;;;6.90;73.20;;;;;;5418037;26;20233;-73
2024/04/20 05:11:09;;;;;;;2.60;1.75;;;6.90;74.30;;;;;;5418549;26;20220;-73
2024/04/20 05:13:38;;;;;;;3.35;1.67;;;6.90;73.80;;;;;;5418530;26;20325;-74
2024/04/20 05:16:07;;;;;;;3.20;1.50;;;6.90;73.00;;;;;;5418593;26;20528;-74
2024/04/20 05:18:36;;;;;;;5.05;2.10;;;6.90;74.30;;;;;;5417096;26;20240;-75
2024/04/20 05:21:05;;;;;;;3.33;1.73;;;6.90;73.20;;;;;;5417706;26;20228;-76
2024/04/20 05:23:36;;;;;;;4.25;1.85;;;7.00;74.10;;;;;;5418164;26;20216;-75
2024/04/20 05:26:05;;;;;;;3.90;1.85;;;6.90;74.40;;;;;;5418398;26;20216;-75
2024/04/20 05:28:34;;;;;;;2.90;1.50;;;7.00;75.20;;;;;;5417673;26;20228;-75
2024/04/20 05:31:02;;;;;;;3.10;1.50;;;7.00;74.70;;;;;;5418089;26;20255;-75
2024/04/20 05:33:31;;;;;;;5.22;1.80;;;7.00;75.40;;;;;;5418049;26;20772;-75
2024/04/20 05:36:04;;;;;;;4.82;2.05;;;7.00;74.10;;;;;;5418138;26;20255;-75
2024/04/20 05:38:40;;;;;;;3.05;1.83;;;7.00;74.40;;;;;;5417662;26;20328;-75
2024/04/20 05:41:09;;;;;;;3.72;1.98;;;6.90;74.70;;;;;;5418400;26;20208;-76
2024/04/20 05:43:40;;;;;;;2.60;1.60;;;6.90;75.40;;;;;;5418570;26;20212;-75
2024/04/20 05:46:10;;;;;;;4.93;1.90;;;6.90;75.30;;;;;;5417831;26;20216;-76
2024/04/20 05:48:39;;;;;;;4.25;1.63;;;7.00;75.80;;;;;;5417540;26;20267;-75
2024/04/20 05:51:08;;;;;;;3.45;1.70;;;7.00;75.40;;;;;;5417874;26;20216;-76
2024/04/20 05:53:40;;;;;;;2.88;1.52;;;7.00;76.10;;;;;;5417883;26;20698;-75
2024/04/20 05:56:10;;;;;;;3.13;1.60;;;7.00;74.90;;;;;;5416708;26;20213;-75
2024/04/20 05:58:38;;;;;;;5.05;1.90;;;7.00;74.40;;;;;;5417202;26;20594;-74
2024/04/20 06:01:07;;;;;;;2.95;2.08;;;7.00;73.90;;;;;;5417244;26;20228;-74
2024/04/20 06:03:37;;;;;;;3.28;1.48;;;7.00;74.10;;;;;;5418554;26;20259;-75
2024/04/20 06:06:06;;;;;;;3.47;1.85;;;7.00;74.80;;;;;;5417581;26;20243;-74
2024/04/20 06:08:39;;;;;;;3.50;1.15;;;7.00;74.20;;;;;;5417093;26;20736;-75
2024/04/20 06:11:11;;;;;;;2.40;1.30;;;6.90;74.50;;;;;;5417159;26;20228;-75
2024/04/20 06:13:42;;;;;;;2.10;1.15;;;7.00;76.00;;;;;;5417806;26;20278;-76
2024/04/20 06:16:12;;;;;;;3.30;1.30;;;7.00;75.10;;;;;;5417159;26;20228;-75
2024/04/20 06:18:40;;;;;;;2.72;1.38;;;7.00;75.50;;;;;;5417864;26;20220;-75
2024/04/20 06:21:12;;;;;;;2.58;1.52;;;7.00;76.70;;;;;;5417430;26;20247;-76
2024/04/20 06:23:41;;;;;;;5.30;1.52;;;7.10;76.00;;;;;;5417400;26;20530;-75
2024/04/20 06:26:12;;;;;;;3.55;1.20;;;7.10;75.70;;;;;;5416505;26;20228;-74
2024/04/20 06:28:46;;;;;;;3.17;1.58;;;7.10;76.40;;;;;;5417176;26;20544;-74
2024/04/20 06:31:16;;;;;;;2.97;1.67;;;7.20;76.30;;;;;;5417192;26;20548;-75
2024/04/20 06:33:45;;;;;;;4.30;1.83;;;7.30;76.30;;;;;;5417215;26;20224;-75
2024/04/20 06:36:13;;;;;;;6.35;2.50;;;7.30;74.70;;;;;;5416567;26;20271;-74
2024/04/20 06:38:42;;;;;;;3.42;1.95;;;7.30;75.00;;;;;;5417040;26;20285;-76
2024/04/20 06:41:14;;;;;;;4.38;1.23;;;7.40;74.40;;;;;;5417172;26;20212;-75
2024/04/20 06:43:42;;;;;;;2.40;1.50;;;7.40;73.60;;;;;;5417115;26;20531;-75
2024/04/20 06:46:11;;;;;;;4.38;1.50;;;7.40;72.60;;;;;;5412965;26;20267;-74
2024/04/20 06:48:40;;;;;;;2.55;1.40;;;7.40;71.90;;;;;;5408414;26;20224;-75
2024/04/20 06:51:09;;;;;;;2.50;1.23;;;7.30;71.80;;;;;;5414808;26;20520;-74
2024/04/20 06:53:39;;;;;;;2.63;1.25;;;7.30;71.30;;;;;;5414240;26;20228;-74
2024/04/20 06:56:12;;;;;;;3.60;1.38;;;7.20;71.10;;;;;;5413754;26;20229;-75
2024/04/20 06:58:43;;;;;;;2.72;1.67;;;7.10;70.50;;;;;;5414850;26;20287;-75
2024/04/20 07:01:17;;;;;;;2.30;1.52;;;7.10;71.20;;;;;;5414178;26;20283;-74
2024/04/20 07:03:46;;;;;;;2.70;1.60;;;7.00;72.30;;;;;;5414761;26;20278;-76
2024/04/20 07:06:15;;;;;;;2.20;1.23;;;7.00;74.20;;;;;;5414104;26;20232;-75
2024/04/20 07:08:43;;;;;;;2.50;1.25;;;7.00;74.10;;;;;;5408662;26;20267;-75
2024/04/20 07:11:12;;;;;;;2.80;1.25;;;7.00;73.80;;;;;;5414046;26;20232;-76
2024/04/20 07:13:44;;;;;;;3.60;1.55;;;7.00;75.30;;;;;;5418046;26;20228;-75
2024/04/20 07:16:13;;;;;;;2.00;1.00;;;7.00;74.60;;;;;;5417256;26;20764;-75
2024/04/20 07:18:44;;;;;;;2.70;1.63;;;7.00;75.60;;;;;;5416127;26;20228;-74
2024/04/20 07:21:12;;;;;;;2.30;1.20;;;7.00;76.40;;;;;;5416913;26;20300;-75
2024/04/20 07:23:41;;;;;;;2.40;1.23;;;7.00;77.50;;;;;;5416878;26;20274;-75
2024/04/20 07:26:10;;;;;;;2.75;1.65;;;7.10;78.60;;;;;;5416932;26;20232;-75
2024/04/20 07:28:39;;;;;;;2.65;1.35;;;7.10;77.30;;;;;;5417483;26;20594;-75
2024/04/20 07:31:11;;;;;;;2.47;1.30;;;7.20;77.60;;;;;;5416658;26;20275;-76
2024/04/20 07:33:40;;;;;;;2.22;1.35;;;7.20;76.90;;;;;;5410765;26;20718;-75
2024/04/20 07:36:11;;;;;;;3.58;2.58;;;7.30;77.50;;;;;;5417259;26;20228;-76
2024/04/20 07:38:40;;;;;;;2.13;1.00;;;7.30;76.00;;;;;;5414865;26;20283;-76
2024/04/20 07:41:09;;;;;;;4.55;1.42;;;7.30;76.90;;;;;;5410910;26;20229;-75
2024/04/20 07:43:40;;;;;;;3.00;1.58;;;7.40;76.60;;;;;;5417490;26;20279;-75
2024/04/20 07:46:11;;;;;;;3.03;1.65;;;7.40;76.00;;;;;;5417176;26;20224;-75
2024/04/20 07:48:41;;;;;;;2.40;1.38;;;7.40;75.20;;;;;;5419114;26;20263;-75
2024/04/20 07:51:10;;;;;;;3.00;1.55;;;7.50;75.40;;;;;;5419529;26;20267;-74
2024/04/20 07:53:38;;;;;;;2.40;1.20;;;7.50;74.30;;;;;;5419529;26;20251;-76
2024/04/20 07:56:07;;;;;;;2.05;1.20;;;7.50;75.30;;;;;;5419361;26;20212;-74
2024/04/20 07:58:36;;;;;;;2.60;1.50;;;7.60;74.30;;;;;;5419681;26;20682;-75
2024/04/20 08:01:05;;;;;;;3.40;1.52;;;7.60;73.80;;;;;;5419789;26;20262;-75
2024/04/20 08:03:36;;;;;;;3.40;1.30;;;7.50;73.10;;;;;;5419463;26;20216;-74
2024/04/20 08:06:05;;;;;;;3.50;1.40;;;7.50;73.30;;;;;;5418586;26;20259;-75
2024/04/20 08:08:38;;;;;;;2.45;1.30;;;7.50;73.90;;;;;;5418942;26;20228;-75
2024/04/20 08:11:07;;;;;;;2.80;1.60;;;7.50;73.30;;;;;;5419276;26;20701;-76
2024/04/20 08:13:37;;;;;;;2.90;2.00;;;7.50;74.00;;;;;;5419014;26;20267;-75
2024/04/20 08:16:07;;;;;;;3.25;2.05;;;7.50;74.50;;;;;;5419256;26;20217;-78
2024/04/20 08:18:38;;;;;;;2.30;1.30;;;7.50;75.40;;;;;;5418585;26;20259;-75
2024/04/20 08:21:07;;;;;;;3.53;1.58;;;7.60;74.90;;;;;;5419151;26;20224;-74
2024/04/20 08:23:35;;;;;;;3.45;2.22;;;7.60;74.30;;;;;;5419009;26;20217;-75
2024/04/20 08:26:04;;;;;;;2.42;1.63;;;7.60;75.00;;;;;;5419165;26;20413;-75
2024/04/20 08:28:33;;;;;;;3.83;1.98;;;7.60;74.10;;;;;;5419115;26;20251;-75
2024/04/20 08:31:02;;;;;;;5.50;2.30;;;7.70;74.30;;;;;;5418074;26;20228;-76
2024/04/20 08:33:30;;;;;;;3.83;1.95;;;7.70;74.00;;;;;;5419132;26;20220;-75
2024/04/20 08:36:02;;;;;;;3.67;1.80;;;7.80;75.40;;;;;;5418883;26;20730;-75
2024/04/20 08:38:31;;;;;;;5.68;2.15;;;7.80;74.80;;;;;;5418434;26;20263;-76
2024/04/20 08:41:02;;;;;;;2.97;1.50;;;7.80;75.30;;;;;;5418771;26;20218;-76
2024/04/20 08:43:32;;;;;;;3.50;1.80;;;7.90;73.70;;;;;;5419170;26;20229;-76
2024/04/20 08:46:04;;;;;;;2.70;1.70;;;8.00;76.00;;;;;;5417551;26;20279;-87
2024/04/20 08:48:36;;;;;;;3.60;1.88;;;7.90;75.20;;;;;;5418001;26;20271;-75
2024/04/20 08:51:08;;;;;;;3.47;1.30;;;8.00;76.00;;;;;;5418732;26;20263;-78
2024/04/20 08:53:44;;;;;;;2.20;1.10;;;8.00;73.50;;;;;;5418716;26;20317;-76
2024/04/20 08:56:14;;;;;;;2.53;1.50;;;7.90;71.20;;;;;;5418728;26;20561;-75
2024/04/20 08:58:45;;;;;;;2.72;1.75;;;7.80;71.40;;;;;;5417432;26;20356;-75
2024/04/20 09:01:19;;;;;;;3.17;1.40;;;7.80;71.80;;;;;;5418628;26;20413;-74
2024/04/20 09:03:48;;;;;;;2.78;1.65;;;7.70;71.80;;;;;;5418875;26;20243;-76
2024/04/20 09:06:22;;;;;;;3.00;1.55;;;7.70;72.60;;;;;;5418071;26;20232;-75
2024/04/20 09:08:51;;;;;;;3.85;1.10;;;7.70;72.60;;;;;;5417943;26;20287;-75
2024/04/20 09:11:20;;;;;;;2.42;1.10;;;7.60;71.50;;;;;;5417574;26;20706;-75
2024/04/20 09:13:53;;;;;;;2.58;1.20;;;7.60;71.80;;;;;;5417281;26;20271;-75
2024/04/20 09:16:22;;;;;;;2.40;1.30;;;7.50;69.70;;;;;;5418303;26;20348;-75
2024/04/20 09:18:58;;;;;;;5.13;1.55;;;7.50;71.00;;;;;;5418432;26;20348;-75
2024/04/20 09:21:31;;;;;;;2.70;1.40;;;7.50;71.50;;;;;;5418374;26;20216;-75
2024/04/20 09:24:08;;;;;;;2.90;1.30;;;7.60;71.50;;;;;;5417748;26;20252;-75
2024/04/20 09:26:37;;;;;;;3.05;1.65;;;7.60;71.40;;;;;;5418253;26;20242;-75
2024/04/20 09:29:08;;;;;;;3.05;1.60;;;7.70;72.90;;;;;;5418331;26;20220;-74
2024/04/20 09:31:37;;;;;;;5.63;2.13;;;7.80;73.00;;;;;;5416121;26;20272;-77
2024/04/20 09:34:06;;;;;;;2.95;1.58;;;7.90;71.80;;;;;;5417611;26;20292;-77
2024/04/20 09:36:37;;;;;;;3.08;1.40;;;7.90;71.80;;;;;;5418015;26;20736;-75
2024/04/20 09:39:07;;;;;;;3.25;1.50;;;7.90;72.30;;;;;;5418113;26;20255;-75
2024/04/20 09:41:36;;;;;;;4.82;1.95;;;8.00;71.70;;;;;;5418692;26;20232;-76
2024/04/20 09:44:05;;;;;;;3.15;1.80;;;8.00;70.10;;;;;;5418200;26;20281;-75
2024/04/20 09:46:40;;;;;;;4.72;1.88;;;8.10;71.60;;;;;;5414976;26;20213;-76
2024/04/20 09:49:09;;;;;;;4.57;2.17;;;8.30;75.70;;;;;;5415634;26;20570;-77
2024/04/20 09:51:57;;;;;;;3.45;1.90;;;8.50;74.60;;;;;;5405255;26;20228;-76
2024/04/20 09:54:29;;;;;;;4.47;2.80;;;8.70;74.00;;;;;;5417154;26;20212;-75
2024/04/20 09:57:01;;;;;;;2.70;1.52;;;9.00;73.70;;;;;;5417008;26;20271;-75
2024/04/20 09:59:30;;;;;;;2.80;1.60;;;9.30;74.10;;;;;;5417278;26;20216;-76
2024/04/20 10:02:02;;;;;;;3.65;2.00;;;9.80;73.20;;;;;;5417267;26;20216;-76
2024/04/20 10:04:33;;;;;;;3.40;2.30;;;10.00;66.50;;;;;;5416632;26;20232;-75
2024/04/20 10:07:04;;;;;;;2.85;1.90;;;10.20;66.30;;;;;;5417380;26;20251;-75
2024/04/20 10:09:38;;;;;;;2.78;1.75;;;10.40;63.70;;;;;;5416811;26;20255;-76
2024/04/20 10:12:09;;;;;;;2.83;1.77;;;10.40;60.00;;;;;;5416828;26;20279;-76
2024/04/20 10:14:39;;;;;;;4.75;1.70;;;10.50;59.80;;;;;;5417598;26;20267;-75
2024/04/20 10:17:08;;;;;;;2.65;1.38;;;10.60;61.30;;;;;;5416367;26;20247;-77
2024/04/20 10:19:43;;;;;;;3.28;1.73;;;10.70;59.00;;;;;;5416821;26;20254;-76
2024/04/20 10:22:15;;;;;;;3.28;2.03;;;10.90;59.50;;;;;;5417454;26;20216;-75
2024/04/20 10:24:55;;;;;;;3.72;2.17;;;11.10;58.40;;;;;;5416698;26;20255;-74
2024/04/20 10:27:30;;;;;;;4.25;1.70;;;11.30;58.50;;;;;;5416584;26;20263;-74
2024/04/20 10:30:12;;;;;;;6.70;1.60;;;11.40;56.90;;;;;;5416443;26;20774;-75
2024/04/20 10:32:45;;;;;;;5.13;1.10;;;11.40;53.30;;;;;;5416430;26;20572;-74
2024/04/20 10:35:19;;;;;;;3.70;1.33;;;11.30;50.50;;;;;;5416209;26;20596;-76
2024/04/20 10:38:00;;;;;;;3.22;1.60;;;11.00;51.10;;;;;;5416391;26;20271;-74
2024/04/20 10:40:31;;;;;;;3.45;1.55;;;10.80;51.30;;;;;;5414033;26;20278;-74
2024/04/20 10:43:11;;;;;;;3.03;1.40;;;10.60;52.10;;;;;;5416099;26;20283;-75
2024/04/20 10:45:39;;;;;;;5.07;1.83;;;10.50;52.60;;;;;;5416081;26;20274;-75
2024/04/20 10:48:09;;;;;;;3.15;1.23;;;10.40;54.40;;;;;;5413093;26;20228;-75
2024/04/20 10:50:42;;;;;;;4.90;1.98;;;10.30;55.10;;;;;;5415111;26;20271;-75
2024/04/20 10:53:17;;;;;;;2.90;1.35;;;10.30;54.30;;;;;;5414188;26;20917;-76
2024/04/20 10:55:45;;;;;;;3.00;1.10;;;10.30;54.00;;;;;;5414480;26;20278;-75
2024/04/20 10:58:14;;;;;;;2.30;1.30;;;10.20;52.90;;;;;;5415935;26;20228;-75
2024/04/20 11:00:43;;;;;;;3.13;1.60;;;10.20;54.10;;;;;;5416628;26;20220;-75
2024/04/20 11:03:13;;;;;;;2.92;1.27;;;10.10;53.50;;;;;;5416006;26;20251;-74
2024/04/20 11:05:42;;;;;;;2.85;1.50;;;10.10;52.40;;;;;;5415229;26;20329;-77
2024/04/20 11:08:14;;;;;;;3.20;1.10;;;10.00;50.90;;;;;;5402623;26;20717;-76
2024/04/20 11:10:43;;;;;;;2.65;1.10;;;9.90;52.40;;;;;;5415191;26;20275;-75
2024/04/20 11:13:12;;;;;;;2.20;1.00;;;9.70;51.40;;;;;;5415607;26;20514;-76
2024/04/20 11:15:41;;;;;;;3.30;1.35;;;9.60;52.10;;;;;;5414890;26;20606;-75
2024/04/20 11:18:11;;;;;;;2.65;1.40;;;9.50;52.20;;;;;;5414682;26;20229;-75
2024/04/20 11:20:39;;;;;;;2.45;1.40;;;9.50;52.90;;;;;;5414616;26;20247;-76
2024/04/20 11:23:10;;;;;;;2.55;1.15;;;9.50;53.10;;;;;;5415491;26;20690;-75
2024/04/20 11:25:52;;;;;;;2.45;1.23;;;9.50;53.00;;;;;;5415465;26;20255;-76
2024/04/20 11:28:21;;;;;;;2.80;1.50;;;9.50;54.20;;;;;;5414690;26;20263;-76
2024/04/20 11:30:50;;;;;;;2.97;1.30;;;9.60;54.10;;;;;;5414760;26;20273;-76
2024/04/20 11:33:19;;;;;;;3.17;1.42;;;9.70;53.20;;;;;;5414912;26;20626;-76
2024/04/20 11:35:51;;;;;;;2.65;1.40;;;9.70;53.10;;;;;;5415903;26;20217;-76
2024/04/20 11:38:24;;;;;;;3.10;1.27;;;9.80;54.80;;;;;;5414939;26;20220;-76
2024/04/20 11:40:55;;;;;;;3.42;1.40;;;9.80;53.30;;;;;;5415123;26;20217;-76
2024/04/20 11:43:25;;;;;;;5.03;1.80;;;9.90;51.60;;;;;;5414848;26;20566;-77
2024/04/20 11:45:56;;;;;;;3.92;1.90;;;9.80;52.10;;;;;;5414232;26;20262;-75
2024/04/20 11:48:27;;;;;;;3.53;1.20;;;9.80;52.60;;;;;;5414263;26;20232;-75
2024/04/20 11:51:04;;;;;;;2.97;1.17;;;9.80;51.70;;;;;;5415108;26;20263;-77
2024/04/20 11:56:23;;;;;;;2.40;1.25;;;9.90;50.70;;;;;;5415719;26;20263;-76
2024/04/20 11:59:03;;;;;;;4.43;1.45;;;9.90;50.10;;;;;;5417156;26;20852;-77
2024/04/20 12:01:31;;;;;;;3.35;1.25;;;10.00;51.60;;;;;;5417882;26;21413;-75
2024/04/20 12:04:00;;;;;;;2.80;1.52;;;10.20;52.60;;;;;;5416287;26;20236;-76
2024/04/20 12:06:31;;;;;;;4.45;1.50;;;10.50;53.70;;;;;;5418633;26;20220;-75
2024/04/20 12:08:59;;;;;;;6.43;1.50;;;10.90;52.60;;;;;;5417661;26;20233;-76
2024/04/20 12:11:31;;;;;;;2.80;1.65;;;11.10;53.00;;;;;;5418199;26;20229;-76
2024/04/20 12:14:00;;;;;;;2.97;1.88;;;11.40;50.50;;;;;;5414261;26;20266;-76
2024/04/20 12:16:33;;;;;;;2.83;1.60;;;11.60;52.00;;;;;;5418124;26;20228;-76
2024/04/20 12:19:04;;;;;;;2.60;1.30;;;11.80;53.80;;;;;;5418476;26;20505;-76
2024/04/20 12:21:32;;;;;;;2.10;1.00;;;12.10;52.00;;;;;;5418296;26;20567;-76
2024/04/20 12:24:01;;;;;;;3.03;1.20;;;12.20;48.60;;;;;;5417788;26;20454;-75
2024/04/20 12:26:33;;;;;;;2.50;1.20;;;12.20;48.80;;;;;;5418486;26;20952;-76
2024/04/20 12:29:02;;;;;;;4.43;1.73;;;12.10;48.30;;;;;;5382928;26;20457;-76
2024/04/20 12:31:31;;;;;;;2.57;1.20;;;12.00;47.20;;;;;;5382822;26;20456;-76
2024/04/20 12:34:00;;;;;;;3.70;1.97;;;11.90;47.90;;;;;;5382865;26;20503;-76
2024/04/20 12:36:29;;;;;;;2.65;1.55;;;11.80;47.60;;;;;;5382659;26;20455;-76
2024/04/20 12:38:57;;;;;;;2.97;1.30;;;11.70;48.80;;;;;;5416390;26;20281;-75
2024/04/20 12:41:26;;;;;;;3.03;1.60;;;11.70;49.00;;;;;;5418413;26;20449;-75
2024/04/20 12:43:57;;;;;;;3.40;1.60;;;11.70;45.80;;;;;;5418215;26;20502;-76
2024/04/20 12:46:26;;;;;;;3.20;1.70;;;11.60;45.40;;;;;;5418359;26;20454;-74
2024/04/20 12:48:55;;;;;;;2.60;1.53;;;11.60;42.70;;;;;;5417784;26;20466;-75
2024/04/20 12:51:24;;;;;;;3.60;1.27;;;11.50;44.10;;;;;;5418023;26;20466;-75
2024/04/20 12:53:52;;;;;;;3.33;1.40;;;11.50;45.90;;;;;;5418054;26;20470;-74
2024/04/20 12:56:22;;;;;;;3.07;1.47;;;11.50;43.70;;;;;;5417310;26;20463;-75
2024/04/20 12:58:50;;;;;;;2.73;1.40;;;11.60;44.50;;;;;;5418055;26;20510;-76
2024/04/20 13:01:21;;;;;;;2.90;1.37;;;11.70;46.20;;;;;;5417715;26;20502;-77
2024/04/20 13:03:51;;;;;;;4.20;1.37;;;11.90;44.90;;;;;;5413607;26;20470;-76
2024/04/20 13:06:19;;;;;;;3.07;1.57;;;12.10;45.40;;;;;;5416648;26;20528;-76
2024/04/20 13:08:52;;;;;;;2.43;0.90;;;12.20;46.70;;;;;;5417204;26;20470;-76
2024/04/20 13:11:21;;;;;;;4.50;1.20;;;12.50;43.40;;;;;;5417381;26;20522;-77
2024/04/20 13:13:50;;;;;;;3.00;1.00;;;12.50;41.20;;;;;;5417824;26;20450;-76